createdAt,value
2018-08-19T00:01:58.000Z,8.00
2018-08-19T00:04:26.757Z,8.23
2018-08-19T00:06:55.981Z,7.50
2018-08-19T00:09:24.774Z,7.10
2018-08-19T00:11:53.505Z,7.10
2018-08-19T00:14:29.822Z,7.50
2018-08-19T00:17:00.704Z,6.67
2018-08-19T00:19:30.322Z,8.07
2018-08-19T00:21:59.056Z,8.23
2018-08-19T00:24:27.799Z,7.60
2018-08-19T00:26:56.559Z,7.07
2018-08-19T00:29:43.625Z,7.70
2018-08-19T00:32:13.556Z,7.37
2018-08-19T00:34:42.303Z,8.07
2018-08-19T00:37:10.994Z,7.17
2018-08-19T00:39:39.709Z,8.80
2018-08-19T00:42:08.397Z,8.20
2018-08-19T00:44:37.148Z,7.73
2018-08-19T00:47:05.920Z,8.57
2018-08-19T00:49:34.688Z,8.30
2018-08-19T00:52:03.582Z,9.00
2018-08-19T00:54:32.869Z,8.37
2018-08-19T00:57:02.003Z,8.10
2018-08-19T00:59:31.901Z,7.97
2018-08-19T01:02:00.741Z,8.80
2018-08-19T01:04:29.497Z,8.70
2018-08-19T01:06:59.318Z,8.13
2018-08-19T01:09:30.836Z,7.90
2018-08-19T01:12:03.747Z,7.50
2018-08-19T01:14:37.752Z,7.73
2018-08-19T01:17:08.994Z,8.43
2018-08-19T01:19:41.318Z,7.13
2018-08-19T01:22:17.298Z,7.60
2018-08-19T01:24:48.133Z,7.70
2018-08-19T01:27:25.681Z,8.83
2018-08-19T01:30:08.379Z,8.70
2018-08-19T01:32:38.702Z,9.47
2018-08-19T01:35:07.541Z,8.43
2018-08-19T01:37:38.146Z,7.97
2018-08-19T01:40:09.865Z,8.40
2018-08-19T01:42:38.662Z,7.80
2018-08-19T01:45:08.462Z,8.90
2018-08-19T01:47:37.288Z,8.67
2018-08-19T01:50:13.076Z,8.20
2018-08-19T01:52:42.457Z,9.60
2018-08-19T01:55:11.281Z,9.00
2018-08-19T01:57:44.856Z,8.87
2018-08-19T02:00:14.348Z,9.07
2018-08-19T02:03:08.441Z,8.70
2018-08-19T02:05:37.184Z,9.00
2018-08-19T02:08:06.052Z,10.33
2018-08-19T02:10:35.382Z,10.67
2018-08-19T02:13:04.259Z,9.77
2018-08-19T02:15:33.483Z,9.40
2018-08-19T02:18:06.596Z,9.90
2018-08-19T02:20:38.447Z,8.80
2018-08-19T02:23:08.745Z,8.33
2018-08-19T02:25:41.479Z,9.27
2018-08-19T02:28:11.184Z,8.77
2018-08-19T02:30:48.686Z,9.13
2018-08-19T02:33:17.397Z,9.70
2018-08-19T02:35:50.348Z,9.73
2018-08-19T02:38:19.367Z,9.27
2018-08-19T02:40:51.510Z,10.00
2018-08-19T02:43:21.090Z,10.20
2018-08-19T02:45:49.874Z,9.93
2018-08-19T02:48:19.306Z,9.63
2018-08-19T02:50:48.017Z,10.40
2018-08-19T02:53:16.772Z,10.10
2018-08-19T02:55:45.492Z,10.90
2018-08-19T02:58:23.721Z,9.63
2018-08-19T03:00:53.192Z,8.80
2018-08-19T03:03:21.933Z,10.40
2018-08-19T03:05:54.349Z,10.50
2018-08-19T03:08:23.028Z,9.63
2018-08-19T03:10:51.777Z,10.40
2018-08-19T03:13:20.497Z,9.47
2018-08-19T03:15:49.680Z,10.20
2018-08-19T03:18:18.399Z,10.80
2018-08-19T03:20:47.137Z,9.70
2018-08-19T03:23:15.891Z,10.87
2018-08-19T03:25:44.604Z,10.33
2018-08-19T03:28:13.352Z,9.20
2018-08-19T03:30:59.852Z,10.70
2018-08-19T03:33:28.692Z,11.50
2018-08-19T03:35:57.467Z,10.83
2018-08-19T03:38:27.213Z,10.10
2018-08-19T03:40:57.341Z,9.60
2018-08-19T03:43:26.225Z,10.50
2018-08-19T03:45:54.917Z,10.17
2018-08-19T03:48:23.624Z,9.60
2018-08-19T03:50:52.373Z,10.50
2018-08-19T03:53:21.080Z,9.30
2018-08-19T03:55:49.798Z,10.33
2018-08-19T03:58:18.532Z,9.63
2018-08-19T04:00:47.324Z,9.90
2018-08-19T04:03:21.380Z,9.70
2018-08-19T04:05:56.617Z,9.13
2018-08-19T04:08:33.259Z,9.50
2018-08-19T04:11:05.002Z,10.70
2018-08-19T04:13:35.976Z,10.72
2018-08-19T04:16:05.995Z,10.83
2018-08-19T04:18:37.987Z,9.03
2018-08-19T04:21:09.455Z,9.50
2018-08-19T04:23:40.751Z,9.37
2018-08-19T04:26:09.470Z,8.43
2018-08-19T04:28:39.462Z,10.67
2018-08-19T04:31:25.205Z,9.53
2018-08-19T04:33:54.807Z,9.50
2018-08-19T04:36:24.777Z,9.70
2018-08-19T04:38:53.508Z,10.03
2018-08-19T04:41:22.222Z,10.57
2018-08-19T04:43:51.092Z,10.47
2018-08-19T04:46:19.792Z,10.97
2018-08-19T04:48:48.813Z,9.47
2018-08-19T04:51:17.520Z,10.70
2018-08-19T04:53:46.237Z,10.50
2018-08-19T04:56:15.073Z,10.13
2018-08-19T04:58:43.798Z,9.90
2018-08-19T05:01:13.193Z,8.97
2018-08-19T05:03:44.182Z,9.30
2018-08-19T05:06:12.956Z,10.03
2018-08-19T05:08:41.670Z,11.22
2018-08-19T05:11:10.397Z,10.47
2018-08-19T05:13:39.103Z,10.53
2018-08-19T05:16:07.793Z,9.83
2018-08-19T05:18:36.548Z,12.27
2018-08-19T05:21:10.465Z,10.60
2018-08-19T05:23:39.245Z,10.27
2018-08-19T05:26:08.085Z,10.23
2018-08-19T05:28:36.848Z,9.93
2018-08-19T05:31:05.621Z,9.50
2018-08-19T05:33:34.390Z,10.50
2018-08-19T05:36:03.142Z,11.10
2018-08-19T05:38:32.980Z,11.57
2018-08-19T05:41:02.285Z,10.60
2018-08-19T05:43:31.521Z,11.50
2018-08-19T05:46:01.321Z,10.10
2018-08-19T05:48:30.414Z,11.50
2018-08-19T05:50:59.397Z,10.27
2018-08-19T05:53:28.162Z,11.60
2018-08-19T05:55:56.944Z,10.77
2018-08-19T05:58:25.667Z,10.23
2018-08-19T06:01:00.799Z,11.40
2018-08-19T06:03:30.092Z,10.80
2018-08-19T06:05:59.197Z,10.37
2018-08-19T06:08:27.948Z,10.10
2018-08-19T06:10:56.774Z,9.30
2018-08-19T06:13:28.136Z,10.80
2018-08-19T06:15:57.001Z,9.57
2018-08-19T06:18:25.790Z,10.50
2018-08-19T06:20:54.492Z,10.20
2018-08-19T06:23:23.313Z,9.57
2018-08-19T06:25:52.099Z,11.33
2018-08-19T06:28:20.836Z,9.90
2018-08-19T06:30:49.635Z,10.27
2018-08-19T06:33:18.390Z,10.10
2018-08-19T06:35:47.072Z,10.90
2018-08-19T06:38:15.792Z,9.60
2018-08-19T06:40:44.500Z,10.37
2018-08-19T06:43:13.249Z,10.30
2018-08-19T06:45:42.054Z,8.67
2018-08-19T06:48:10.748Z,10.07
2018-08-19T06:50:39.517Z,10.17
2018-08-19T06:53:09.619Z,10.60
2018-08-19T06:55:38.385Z,11.33
2018-08-19T06:58:07.048Z,11.50
2018-08-19T07:00:36.041Z,10.53
2018-08-19T07:03:05.760Z,8.20
2018-08-19T07:05:35.057Z,8.90
2018-08-19T07:08:03.877Z,9.23
2018-08-19T07:10:40.748Z,9.13
2018-08-19T07:13:12.606Z,7.27
2018-08-19T07:15:42.541Z,7.10
2018-08-19T07:18:15.280Z,8.30
2018-08-19T07:20:44.869Z,9.20
2018-08-19T07:23:14.020Z,8.93
2018-08-19T07:25:45.079Z,8.80
2018-08-19T07:28:15.436Z,9.30
2018-08-19T07:30:44.445Z,10.00
2018-08-19T07:33:13.642Z,10.30
2018-08-19T07:35:42.410Z,8.70
2018-08-19T07:38:11.359Z,9.60
2018-08-19T07:40:40.043Z,8.20
2018-08-19T07:43:08.896Z,8.20
2018-08-19T07:45:37.660Z,6.60
2018-08-19T07:48:06.523Z,7.90
2018-08-19T07:50:35.221Z,7.60
2018-08-19T07:53:04.013Z,8.43
2018-08-19T07:55:32.789Z,7.17
2018-08-19T07:58:01.512Z,6.77
2018-08-19T08:00:35.506Z,7.30
2018-08-19T08:03:04.202Z,7.30
2018-08-19T08:05:38.045Z,8.50
2018-08-19T08:08:08.057Z,6.00
2018-08-19T08:10:37.142Z,5.30
2018-08-19T08:13:10.675Z,4.50
2018-08-19T08:15:44.576Z,5.67
2018-08-19T08:18:14.041Z,6.13
2018-08-19T08:20:42.790Z,6.00
2018-08-19T08:23:18.321Z,5.17
2018-08-19T08:25:47.082Z,5.37
2018-08-19T08:28:15.894Z,5.90
2018-08-19T08:30:44.568Z,5.47
2018-08-19T08:33:13.329Z,5.27
2018-08-19T08:35:47.170Z,6.50
2018-08-19T08:38:15.933Z,5.50
2018-08-19T08:40:44.733Z,5.50
2018-08-19T08:43:13.404Z,4.53
2018-08-19T08:45:43.466Z,4.97
2018-08-19T08:48:12.625Z,5.00
2018-08-19T08:50:41.374Z,5.60
2018-08-19T08:53:10.125Z,6.27
2018-08-19T08:55:38.957Z,4.30
2018-08-19T08:58:08.021Z,4.90
2018-08-19T09:00:36.766Z,5.87
2018-08-19T09:03:05.616Z,5.07
2018-08-19T09:05:34.510Z,5.30
2018-08-19T09:08:03.344Z,4.80
2018-08-19T09:10:32.110Z,5.37
2018-08-19T09:13:00.892Z,5.47
2018-08-19T09:15:29.640Z,4.30
2018-08-19T09:17:58.398Z,5.10
2018-08-19T09:20:27.140Z,5.37
2018-08-19T09:22:55.914Z,4.47
2018-08-19T09:25:24.721Z,4.50
2018-08-19T09:27:53.553Z,4.30
2018-08-19T09:30:45.314Z,4.17
2018-08-19T09:33:15.056Z,4.17
2018-08-19T09:35:44.388Z,4.20
2018-08-19T09:38:20.243Z,4.77
2018-08-19T09:40:49.083Z,5.67
2018-08-19T09:43:17.906Z,5.27
2018-08-19T09:45:47.198Z,4.80
2018-08-19T09:48:16.317Z,3.53
2018-08-19T09:50:45.456Z,4.30
2018-08-19T09:53:14.262Z,3.77
2018-08-19T09:55:49.051Z,4.20
2018-08-19T09:58:19.366Z,3.47
2018-08-19T10:00:53.503Z,3.33
2018-08-19T10:03:22.225Z,3.70
2018-08-19T10:05:51.033Z,3.63
2018-08-19T10:08:22.302Z,3.30
2018-08-19T10:10:51.542Z,3.67
2018-08-19T10:13:20.657Z,3.13
2018-08-19T10:15:49.402Z,3.47
2018-08-19T10:18:18.117Z,4.60
2018-08-19T10:20:46.921Z,3.33
2018-08-19T10:23:15.606Z,2.80
2018-08-19T10:25:44.398Z,3.53
2018-08-19T10:28:13.083Z,2.90
2018-08-19T10:30:57.340Z,3.33
2018-08-19T10:33:26.054Z,3.50
2018-08-19T10:35:57.741Z,4.23
2018-08-19T10:38:26.535Z,3.10
2018-08-19T10:41:03.413Z,3.37
2018-08-19T10:43:32.187Z,3.57
2018-08-19T10:46:00.995Z,3.83
2018-08-19T10:48:30.009Z,3.50
2018-08-19T10:51:00.137Z,3.43
2018-08-19T10:53:29.510Z,3.17
2018-08-19T10:55:59.457Z,3.27
2018-08-19T10:58:28.269Z,3.40
2018-08-19T11:00:57.007Z,3.30
2018-08-19T11:03:25.685Z,4.00
2018-08-19T11:05:55.730Z,3.47
2018-08-19T11:08:24.493Z,3.07
2018-08-19T11:10:53.186Z,3.60
2018-08-19T11:13:23.827Z,3.63
2018-08-19T11:15:54.442Z,4.00
2018-08-19T11:18:30.353Z,3.80
2018-08-19T11:21:16.290Z,3.90
2018-08-19T11:23:46.351Z,4.03
2018-08-19T11:26:15.399Z,3.90
2018-08-19T11:28:51.123Z,3.40
2018-08-19T11:31:26.039Z,5.20
2018-08-19T11:33:57.822Z,3.57
2018-08-19T11:36:32.992Z,4.07
2018-08-19T11:39:01.774Z,3.90
2018-08-19T11:41:31.472Z,4.17
2018-08-19T11:44:03.507Z,4.00
2018-08-19T11:46:32.227Z,4.10
2018-08-19T11:49:06.215Z,4.03
2018-08-19T11:51:46.193Z,4.10
2018-08-19T11:54:15.916Z,4.80
2018-08-19T11:56:52.327Z,3.63
2018-08-19T11:59:22.173Z,4.43
2018-08-19T12:01:50.874Z,3.83
2018-08-19T12:04:25.866Z,4.67
2018-08-19T12:06:54.612Z,4.53
2018-08-19T12:09:23.392Z,4.73
2018-08-19T12:11:52.234Z,4.80
2018-08-19T12:14:20.996Z,4.83
2018-08-19T12:16:56.892Z,4.30
2018-08-19T12:19:26.957Z,4.17
2018-08-19T12:21:57.935Z,5.00
2018-08-19T12:24:34.784Z,4.67
2018-08-19T12:27:05.667Z,3.90
2018-08-19T12:29:35.597Z,4.70
2018-08-19T12:32:12.838Z,4.23
2018-08-19T12:34:47.393Z,4.30
2018-08-19T12:37:17.155Z,4.73
2018-08-19T12:39:45.960Z,3.90
2018-08-19T12:42:14.822Z,4.60
2018-08-19T12:44:44.399Z,4.30
2018-08-19T12:47:17.988Z,4.20
2018-08-19T12:49:48.389Z,4.40
2018-08-19T12:52:18.992Z,5.07
2018-08-19T12:55:23.648Z,4.33
2018-08-19T12:58:02.576Z,5.03
2018-08-19T13:00:31.505Z,4.33
2018-08-19T13:03:00.328Z,4.70
2018-08-19T13:05:29.066Z,4.13
2018-08-19T13:07:57.851Z,4.40
2018-08-19T13:10:35.241Z,5.10
2018-08-19T13:13:04.009Z,4.60
2018-08-19T13:15:32.780Z,4.20
2018-08-19T13:18:01.593Z,4.90
2018-08-19T13:20:30.389Z,4.93
2018-08-19T13:23:03.377Z,4.30
2018-08-19T13:25:32.446Z,4.90
2018-08-19T13:28:01.365Z,5.13
2018-08-19T13:30:30.153Z,4.73
2018-08-19T13:32:58.932Z,5.20
2018-08-19T13:35:27.724Z,4.77
2018-08-19T13:37:56.597Z,4.27
2018-08-19T13:40:25.409Z,4.10
2018-08-19T13:42:54.166Z,5.70
2018-08-19T13:45:24.176Z,4.23
2018-08-19T13:47:54.219Z,3.90
2018-08-19T13:50:23.011Z,4.13
2018-08-19T13:52:51.762Z,4.53
2018-08-19T13:55:21.202Z,4.83
2018-08-19T13:57:49.983Z,5.53
2018-08-19T14:00:21.335Z,4.43
2018-08-19T14:02:50.686Z,4.67
2018-08-19T14:05:19.417Z,4.23
2018-08-19T14:07:48.163Z,5.17
2018-08-19T14:10:17.052Z,5.17
2018-08-19T14:12:45.840Z,5.90
2018-08-19T14:15:14.727Z,5.13
2018-08-19T14:17:43.601Z,4.97
2018-08-19T14:20:12.441Z,4.77
2018-08-19T14:22:41.271Z,5.67
2018-08-19T14:25:11.008Z,5.00
2018-08-19T14:27:39.980Z,4.80
2018-08-19T14:30:10.564Z,5.47
2018-08-19T14:32:43.970Z,5.30
2018-08-19T14:35:12.790Z,4.83
2018-08-19T14:37:41.689Z,5.30
2018-08-19T14:40:12.798Z,5.23
2018-08-19T14:42:41.601Z,5.40
2018-08-19T14:45:10.354Z,5.20
2018-08-19T14:47:39.107Z,5.53
2018-08-19T14:50:15.893Z,5.87
2018-08-19T14:52:44.765Z,4.67
2018-08-19T14:55:13.571Z,5.07
2018-08-19T14:57:42.450Z,5.00
2018-08-19T15:00:13.117Z,5.37
2018-08-19T15:02:42.010Z,5.60
2018-08-19T15:05:18.409Z,5.33
2018-08-19T15:07:47.433Z,4.70
2018-08-19T15:10:18.620Z,5.07
2018-08-19T15:12:47.405Z,4.53
2018-08-19T15:15:16.263Z,4.43
2018-08-19T15:17:51.181Z,4.00
2018-08-19T15:20:25.087Z,5.33
2018-08-19T15:23:01.993Z,5.50
2018-08-19T15:25:30.714Z,4.20
2018-08-19T15:27:59.592Z,5.63
2018-08-19T15:30:29.251Z,5.53
2018-08-19T15:32:58.330Z,4.70
2018-08-19T15:35:26.783Z,4.57
2018-08-19T15:37:55.576Z,5.10
2018-08-19T15:40:34.254Z,5.27
2018-08-19T15:43:03.016Z,5.60
2018-08-19T15:45:31.863Z,4.80
2018-08-19T15:48:00.545Z,4.90
2018-08-19T15:50:29.326Z,4.40
2018-08-19T15:52:58.700Z,4.37
2018-08-19T15:55:27.352Z,5.10
2018-08-19T15:57:59.277Z,4.80
2018-08-19T16:00:28.037Z,4.60
2018-08-19T16:02:57.169Z,4.60
2018-08-19T16:05:25.872Z,5.07
2018-08-19T16:07:54.566Z,5.03
2018-08-19T16:10:23.407Z,4.13
2018-08-19T16:12:52.799Z,4.03
2018-08-19T16:15:24.909Z,4.77
2018-08-19T16:17:54.949Z,4.70
2018-08-19T16:20:23.998Z,4.87
2018-08-19T16:22:53.047Z,5.13
2018-08-19T16:25:22.394Z,5.00
2018-08-19T16:27:51.835Z,4.60
2018-08-19T16:30:20.792Z,5.20
2018-08-19T16:32:49.745Z,4.60
2018-08-19T16:35:18.473Z,4.60
2018-08-19T16:37:47.241Z,5.10
2018-08-19T16:40:16.004Z,4.20
2018-08-19T16:42:44.842Z,4.93
2018-08-19T16:45:13.612Z,5.13
2018-08-19T16:47:42.367Z,4.70
2018-08-19T16:50:12.830Z,5.23
2018-08-19T16:52:41.584Z,4.80
2018-08-19T16:55:10.731Z,4.57
2018-08-19T16:57:39.468Z,5.53
2018-08-19T17:00:09.309Z,5.17
2018-08-19T17:02:38.255Z,4.90
2018-08-19T17:05:16.849Z,5.13
2018-08-19T17:07:45.540Z,5.20
2018-08-19T17:10:14.407Z,5.70
2018-08-19T17:12:43.061Z,4.50
2018-08-19T17:15:11.765Z,4.70
2018-08-19T17:17:40.459Z,4.90
2018-08-19T17:20:09.150Z,5.00
2018-08-19T17:22:38.612Z,5.57
2018-08-19T17:25:07.381Z,4.80
2018-08-19T17:27:36.221Z,4.80
2018-08-19T17:30:09.288Z,5.03
2018-08-19T17:32:38.060Z,4.70
2018-08-19T17:35:06.759Z,5.90
2018-08-19T17:37:35.552Z,4.80
2018-08-19T17:40:04.363Z,5.40
2018-08-19T17:42:33.123Z,6.00
2018-08-19T17:45:01.906Z,5.57
2018-08-19T17:47:30.604Z,5.17
2018-08-19T17:49:59.355Z,5.97
2018-08-19T17:52:28.088Z,5.60
2018-08-19T17:54:56.829Z,5.73
2018-08-19T17:57:25.610Z,5.37
2018-08-19T17:59:54.326Z,5.00
2018-08-19T18:02:23.055Z,6.23
2018-08-19T18:04:51.779Z,5.30
2018-08-19T18:07:25.254Z,5.30
2018-08-19T18:09:58.183Z,5.67
2018-08-19T18:12:26.937Z,5.53
2018-08-19T18:14:55.691Z,6.10
2018-08-19T18:17:24.544Z,5.40
2018-08-19T18:19:53.336Z,5.80
2018-08-19T18:22:22.422Z,6.27
2018-08-19T18:25:01.370Z,6.57
2018-08-19T18:27:30.129Z,6.00
2018-08-19T18:29:58.933Z,6.30
2018-08-19T18:32:27.686Z,5.40
2018-08-19T18:34:56.428Z,5.30
2018-08-19T18:37:25.238Z,6.53
2018-08-19T18:39:53.936Z,6.10
2018-08-19T18:42:34.685Z,6.50
2018-08-19T18:45:10.398Z,6.07
2018-08-19T18:47:49.093Z,5.93
2018-08-19T18:50:18.649Z,5.43
2018-08-19T18:52:47.343Z,5.57
2018-08-19T18:55:16.085Z,5.70
2018-08-19T18:57:50.040Z,6.10
2018-08-19T19:00:19.843Z,6.33
2018-08-19T19:02:55.074Z,6.03
2018-08-19T19:05:30.430Z,5.73
2018-08-19T19:08:14.992Z,6.03
2018-08-19T19:10:52.978Z,5.60
2018-08-19T19:13:22.765Z,6.30
2018-08-19T19:15:51.553Z,5.97
2018-08-19T19:18:20.324Z,6.40
2018-08-19T19:20:54.266Z,6.87
2018-08-19T19:23:30.224Z,7.07
2018-08-19T19:25:59.590Z,8.57
2018-08-19T19:28:28.455Z,7.27
2018-08-19T19:31:27.663Z,8.10
2018-08-19T19:34:01.027Z,7.73
2018-08-19T19:36:30.090Z,7.70
2018-08-19T19:38:59.410Z,8.27
2018-08-19T19:41:30.350Z,7.27
2018-08-19T19:43:59.413Z,7.90
2018-08-19T19:46:28.163Z,6.87
2018-08-19T19:48:56.886Z,6.97
2018-08-19T19:51:25.644Z,7.87
2018-08-19T19:53:54.367Z,7.30
2018-08-19T19:56:23.094Z,7.30
2018-08-19T19:58:51.821Z,6.50
2018-08-19T20:01:20.632Z,6.30
2018-08-19T20:03:57.227Z,6.97
2018-08-19T20:06:26.033Z,6.10
2018-08-19T20:08:58.327Z,7.63
2018-08-19T20:11:27.333Z,6.93
2018-08-19T20:13:58.621Z,7.00
2018-08-19T20:16:27.572Z,6.73
2018-08-19T20:18:56.501Z,6.30
2018-08-19T20:21:26.454Z,6.50
2018-08-19T20:23:57.391Z,6.93
2018-08-19T20:26:26.692Z,6.20
2018-08-19T20:28:57.962Z,6.83
2018-08-19T20:31:26.749Z,6.40
2018-08-19T20:33:55.549Z,7.07
2018-08-19T20:36:24.330Z,6.80
2018-08-19T20:38:53.117Z,6.87
2018-08-19T20:41:21.937Z,6.53
2018-08-19T20:43:50.732Z,6.03
2018-08-19T20:46:19.482Z,6.87
2018-08-19T20:48:48.765Z,6.77
2018-08-19T20:51:17.655Z,5.80
2018-08-19T20:53:46.424Z,5.97
2018-08-19T20:56:15.176Z,6.57
2018-08-19T20:58:43.929Z,6.87
2018-08-19T21:01:17.911Z,6.23
2018-08-19T21:03:46.887Z,6.80
2018-08-19T21:06:15.657Z,6.83
2018-08-19T21:08:44.394Z,6.90
2018-08-19T21:11:13.226Z,6.60
2018-08-19T21:13:41.929Z,7.03
2018-08-19T21:16:10.758Z,5.57
2018-08-19T21:18:39.659Z,6.00
2018-08-19T21:21:08.384Z,6.83
2018-08-19T21:23:37.090Z,5.93
2018-08-19T21:26:05.828Z,7.20
2018-08-19T21:28:34.579Z,6.13
2018-08-19T21:31:03.312Z,5.50
2018-08-19T21:33:32.255Z,6.50
2018-08-19T21:36:01.012Z,6.00
2018-08-19T21:38:29.705Z,5.70
2018-08-19T21:40:58.645Z,5.83
2018-08-19T21:43:29.299Z,5.83
2018-08-19T21:45:58.408Z,6.23
2018-08-19T21:48:27.195Z,6.60
2018-08-19T21:50:55.912Z,5.50
2018-08-19T21:53:24.731Z,5.50
2018-08-19T21:55:53.760Z,5.80
2018-08-19T21:58:22.509Z,4.97
2018-08-19T22:00:55.949Z,5.60
2018-08-19T22:03:29.971Z,5.40
2018-08-19T22:05:58.743Z,5.30
2018-08-19T22:08:27.597Z,5.40
2018-08-19T22:10:56.414Z,4.97
2018-08-19T22:13:25.308Z,4.93
2018-08-19T22:15:54.059Z,4.90
2018-08-19T22:18:23.728Z,5.20
2018-08-19T22:21:04.335Z,4.80
2018-08-19T22:23:38.276Z,6.37
2018-08-19T22:26:07.506Z,5.80
2018-08-19T22:28:36.261Z,5.63
2018-08-19T22:31:17.248Z,5.40
2018-08-19T22:33:52.251Z,5.20
2018-08-19T22:36:21.361Z,5.10
2018-08-19T22:38:50.708Z,5.30
2018-08-19T22:41:22.501Z,4.73
2018-08-19T22:43:51.917Z,4.17
2018-08-19T22:46:20.727Z,5.80
2018-08-19T22:48:51.449Z,4.73
2018-08-19T22:51:20.306Z,5.10
2018-08-19T22:53:53.230Z,5.30
2018-08-19T22:56:22.552Z,5.40
2018-08-19T22:58:51.258Z,4.67
2018-08-19T23:01:20.204Z,5.30
2018-08-19T23:03:49.246Z,4.73
2018-08-19T23:06:18.009Z,4.80
2018-08-19T23:08:46.774Z,5.00
2018-08-19T23:11:15.481Z,4.70
2018-08-19T23:13:55.310Z,5.70
2018-08-19T23:16:24.041Z,4.50
2018-08-19T23:18:52.781Z,4.90
2018-08-19T23:21:21.517Z,4.70
2018-08-19T23:23:50.285Z,4.53
2018-08-19T23:26:19.026Z,4.40
2018-08-19T23:28:47.729Z,6.43
2018-08-19T23:31:16.456Z,4.77
2018-08-19T23:33:45.214Z,5.60
2018-08-19T23:36:13.975Z,4.60
2018-08-19T23:38:42.690Z,4.70
2018-08-19T23:41:11.470Z,5.23
2018-08-19T23:43:40.212Z,4.60
2018-08-19T23:46:09.035Z,4.93
2018-08-19T23:48:37.735Z,5.30
2018-08-19T23:51:09.158Z,4.87
2018-08-19T23:53:37.967Z,5.10
2018-08-19T23:56:06.821Z,5.03
2018-08-19T23:58:35.497Z,4.70
